sensor_id;sensor_type;location;lat;lon;timestamp;P1;durP1;ratioP1;P2;durP2;ratioP2
53287;SDS011;39172;45.550;12.072;2023-04-10T00:03:42;1.73;;;1.50;;
53287;SDS011;39172;45.550;12.072;2023-04-10T00:09:43;1.40;;;1.10;;
53287;SDS011;39172;45.550;12.072;2023-04-10T00:15:44;1.58;;;1.15;;
53287;SDS011;39172;45.550;12.072;2023-04-10T00:21:45;1.70;;;1.17;;
53287;SDS011;39172;45.550;12.072;2023-04-10T00:27:46;1.40;;;1.17;;
53287;SDS011;39172;45.550;12.072;2023-04-10T00:33:47;2.15;;;1.50;;
53287;SDS011;39172;45.550;12.072;2023-04-10T00:39:48;1.55;;;1.42;;
53287;SDS011;39172;45.550;12.072;2023-04-10T00:45:49;1.63;;;1.30;;
53287;SDS011;39172;45.550;12.072;2023-04-10T00:51:50;1.85;;;1.40;;
53287;SDS011;39172;45.550;12.072;2023-04-10T00:57:52;1.23;;;1.10;;
53287;SDS011;39172;45.550;12.072;2023-04-10T01:03:55;1.60;;;1.40;;
53287;SDS011;39172;45.550;12.072;2023-04-10T01:10:04;1.83;;;1.55;;
53287;SDS011;39172;45.550;12.072;2023-04-10T01:16:15;2.00;;;1.70;;
53287;SDS011;39172;45.550;12.072;2023-04-10T01:22:18;2.00;;;1.50;;
53287;SDS011;39172;45.550;12.072;2023-04-10T01:28:43;1.83;;;1.60;;
53287;SDS011;39172;45.550;12.072;2023-04-10T01:34:48;2.15;;;1.80;;
53287;SDS011;39172;45.550;12.072;2023-04-10T01:40:51;2.15;;;1.83;;
53287;SDS011;39172;45.550;12.072;2023-04-10T01:47:00;2.22;;;1.70;;
53287;SDS011;39172;45.550;12.072;2023-04-10T01:53:02;2.45;;;2.00;;
53287;SDS011;39172;45.550;12.072;2023-04-10T01:59:03;2.17;;;1.77;;
53287;SDS011;39172;45.550;12.072;2023-04-10T02:05:05;2.10;;;1.60;;
53287;SDS011;39172;45.550;12.072;2023-04-10T02:11:14;1.98;;;1.63;;
53287;SDS011;39172;45.550;12.072;2023-04-10T02:17:16;2.10;;;1.67;;
53287;SDS011;39172;45.550;12.072;2023-04-10T02:23:23;1.50;;;1.20;;
53287;SDS011;39172;45.550;12.072;2023-04-10T02:29:26;1.30;;;1.20;;
53287;SDS011;39172;45.550;12.072;2023-04-10T02:35:27;1.10;;;1.00;;
53287;SDS011;39172;45.550;12.072;2023-04-10T02:41:29;1.08;;;0.90;;
53287;SDS011;39172;45.550;12.072;2023-04-10T02:47:32;1.33;;;0.90;;
53287;SDS011;39172;45.550;12.072;2023-04-10T02:53:33;1.13;;;0.95;;
53287;SDS011;39172;45.550;12.072;2023-04-10T02:59:35;1.00;;;0.90;;
53287;SDS011;39172;45.550;12.072;2023-04-10T03:05:38;1.85;;;1.50;;
53287;SDS011;39172;45.550;12.072;2023-04-10T03:11:39;1.88;;;1.60;;
53287;SDS011;39172;45.550;12.072;2023-04-10T03:17:40;2.20;;;1.90;;
53287;SDS011;39172;45.550;12.072;2023-04-10T03:23:42;3.17;;;1.90;;
53287;SDS011;39172;45.550;12.072;2023-04-10T03:29:42;2.30;;;1.65;;
53287;SDS011;39172;45.550;12.072;2023-04-10T03:35:45;1.70;;;1.35;;
53287;SDS011;39172;45.550;12.072;2023-04-10T03:41:47;1.83;;;1.50;;
53287;SDS011;39172;45.550;12.072;2023-04-10T03:47:48;1.77;;;1.50;;
53287;SDS011;39172;45.550;12.072;2023-04-10T03:53:51;1.45;;;1.27;;
53287;SDS011;39172;45.550;12.072;2023-04-10T03:59:52;1.55;;;1.20;;
53287;SDS011;39172;45.550;12.072;2023-04-10T04:05:53;1.52;;;1.25;;
53287;SDS011;39172;45.550;12.072;2023-04-10T04:12:17;1.42;;;1.13;;
53287;SDS011;39172;45.550;12.072;2023-04-10T04:18:41;1.10;;;0.90;;
53287;SDS011;39172;45.550;12.072;2023-04-10T04:25:04;1.50;;;1.00;;
53287;SDS011;39172;45.550;12.072;2023-04-10T04:31:40;0.93;;;0.82;;
53287;SDS011;39172;45.550;12.072;2023-04-10T04:37:55;1.30;;;0.98;;
53287;SDS011;39172;45.550;12.072;2023-04-10T04:44:15;0.87;;;0.70;;
53287;SDS011;39172;45.550;12.072;2023-04-10T04:50:39;2.22;;;1.80;;
53287;SDS011;39172;45.550;12.072;2023-04-10T04:56:51;2.78;;;2.30;;
53287;SDS011;39172;45.550;12.072;2023-04-10T05:03:00;3.25;;;2.47;;
53287;SDS011;39172;45.550;12.072;2023-04-10T05:09:15;1.98;;;1.60;;
53287;SDS011;39172;45.550;12.072;2023-04-10T05:15:38;2.88;;;2.20;;
53287;SDS011;39172;45.550;12.072;2023-04-10T05:21:59;3.08;;;2.50;;
53287;SDS011;39172;45.550;12.072;2023-04-10T05:28:19;3.67;;;2.80;;
53287;SDS011;39172;45.550;12.072;2023-04-10T05:34:38;3.10;;;2.63;;
53287;SDS011;39172;45.550;12.072;2023-04-10T05:40:47;2.70;;;2.20;;
53287;SDS011;39172;45.550;12.072;2023-04-10T05:47:07;3.03;;;2.35;;
53287;SDS011;39172;45.550;12.072;2023-04-10T05:53:28;8.52;;;4.30;;
53287;SDS011;39172;45.550;12.072;2023-04-10T05:59:58;3.97;;;3.28;;
53287;SDS011;39172;45.550;12.072;2023-04-10T06:06:14;4.25;;;3.83;;
53287;SDS011;39172;45.550;12.072;2023-04-10T06:12:15;3.83;;;3.08;;
53287;SDS011;39172;45.550;12.072;2023-04-10T06:18:17;3.78;;;3.00;;
53287;SDS011;39172;45.550;12.072;2023-04-10T06:24:18;4.50;;;3.25;;
53287;SDS011;39172;45.550;12.072;2023-04-10T06:30:21;3.92;;;3.25;;
53287;SDS011;39172;45.550;12.072;2023-04-10T06:36:22;4.13;;;3.10;;
53287;SDS011;39172;45.550;12.072;2023-04-10T06:42:30;3.97;;;3.00;;
53287;SDS011;39172;45.550;12.072;2023-04-10T06:48:35;3.83;;;2.97;;
53287;SDS011;39172;45.550;12.072;2023-04-10T06:54:36;3.70;;;2.80;;
53287;SDS011;39172;45.550;12.072;2023-04-10T07:00:37;3.45;;;2.70;;
53287;SDS011;39172;45.550;12.072;2023-04-10T07:06:38;3.20;;;2.53;;
53287;SDS011;39172;45.550;12.072;2023-04-10T07:12:39;3.22;;;2.50;;
53287;SDS011;39172;45.550;12.072;2023-04-10T07:18:40;2.50;;;2.20;;
53287;SDS011;39172;45.550;12.072;2023-04-10T07:24:41;2.88;;;2.30;;
53287;SDS011;39172;45.550;12.072;2023-04-10T07:30:42;2.15;;;1.83;;
53287;SDS011;39172;45.550;12.072;2023-04-10T07:36:43;2.70;;;2.20;;
53287;SDS011;39172;45.550;12.072;2023-04-10T07:42:44;2.15;;;1.70;;
53287;SDS011;39172;45.550;12.072;2023-04-10T07:48:45;2.45;;;2.10;;
53287;SDS011;39172;45.550;12.072;2023-04-10T07:54:49;2.63;;;1.90;;
53287;SDS011;39172;45.550;12.072;2023-04-10T08:00:50;2.13;;;1.80;;
53287;SDS011;39172;45.550;12.072;2023-04-10T08:06:51;2.10;;;1.80;;
53287;SDS011;39172;45.550;12.072;2023-04-10T08:12:52;1.77;;;1.60;;
53287;SDS011;39172;45.550;12.072;2023-04-10T08:18:54;2.33;;;1.80;;
53287;SDS011;39172;45.550;12.072;2023-04-10T08:24:55;2.10;;;1.77;;
53287;SDS011;39172;45.550;12.072;2023-04-10T08:30:56;2.55;;;1.67;;
53287;SDS011;39172;45.550;12.072;2023-04-10T08:36:57;1.80;;;1.50;;
53287;SDS011;39172;45.550;12.072;2023-04-10T08:42:57;1.73;;;1.40;;
53287;SDS011;39172;45.550;12.072;2023-04-10T08:49:02;2.20;;;1.67;;
53287;SDS011;39172;45.550;12.072;2023-04-10T08:55:04;2.05;;;1.55;;
53287;SDS011;39172;45.550;12.072;2023-04-10T09:01:07;1.52;;;1.40;;
53287;SDS011;39172;45.550;12.072;2023-04-10T09:07:08;1.77;;;1.50;;
53287;SDS011;39172;45.550;12.072;2023-04-10T09:13:09;1.85;;;1.30;;
53287;SDS011;39172;45.550;12.072;2023-04-10T09:19:10;1.50;;;1.30;;
53287;SDS011;39172;45.550;12.072;2023-04-10T09:25:27;1.95;;;1.63;;
53287;SDS011;39172;45.550;12.072;2023-04-10T09:37:34;2.22;;;1.70;;
53287;SDS011;39172;45.550;12.072;2023-04-10T09:43:35;2.25;;;1.90;;
53287;SDS011;39172;45.550;12.072;2023-04-10T09:49:50;2.30;;;2.00;;
53287;SDS011;39172;45.550;12.072;2023-04-10T09:55:52;2.45;;;1.73;;
53287;SDS011;39172;45.550;12.072;2023-04-10T10:01:54;2.42;;;1.70;;
53287;SDS011;39172;45.550;12.072;2023-04-10T10:07:55;2.30;;;1.80;;
53287;SDS011;39172;45.550;12.072;2023-04-10T10:13:56;2.00;;;1.58;;
53287;SDS011;39172;45.550;12.072;2023-04-10T10:20:01;2.22;;;1.70;;
53287;SDS011;39172;45.550;12.072;2023-04-10T10:26:04;2.25;;;1.90;;
53287;SDS011;39172;45.550;12.072;2023-04-10T10:32:06;2.83;;;2.22;;
53287;SDS011;39172;45.550;12.072;2023-04-10T10:38:07;2.40;;;2.17;;
53287;SDS011;39172;45.550;12.072;2023-04-10T10:44:14;2.30;;;1.90;;
53287;SDS011;39172;45.550;12.072;2023-04-10T10:50:16;2.20;;;1.75;;
53287;SDS011;39172;45.550;12.072;2023-04-10T11:02:18;2.70;;;2.08;;
53287;SDS011;39172;45.550;12.072;2023-04-10T11:08:38;2.72;;;1.95;;
53287;SDS011;39172;45.550;12.072;2023-04-10T11:14:42;1.90;;;1.50;;
53287;SDS011;39172;45.550;12.072;2023-04-10T11:27:03;2.53;;;1.83;;
53287;SDS011;39172;45.550;12.072;2023-04-10T11:33:04;2.80;;;1.92;;
53287;SDS011;39172;45.550;12.072;2023-04-10T11:39:05;2.47;;;1.95;;
53287;SDS011;39172;45.550;12.072;2023-04-10T11:45:23;2.78;;;2.20;;
53287;SDS011;39172;45.550;12.072;2023-04-10T11:51:25;2.50;;;1.80;;
53287;SDS011;39172;45.550;12.072;2023-04-10T11:57:33;2.20;;;1.65;;
53287;SDS011;39172;45.550;12.072;2023-04-10T12:03:35;3.17;;;1.80;;
53287;SDS011;39172;45.550;12.072;2023-04-10T12:09:36;2.28;;;1.90;;
53287;SDS011;39172;45.550;12.072;2023-04-10T12:15:37;2.70;;;1.60;;
53287;SDS011;39172;45.550;12.072;2023-04-10T12:21:38;1.85;;;1.42;;
53287;SDS011;39172;45.550;12.072;2023-04-10T12:27:46;2.20;;;1.50;;
53287;SDS011;39172;45.550;12.072;2023-04-10T12:33:47;1.90;;;1.70;;
53287;SDS011;39172;45.550;12.072;2023-04-10T12:39:48;2.10;;;1.60;;
53287;SDS011;39172;45.550;12.072;2023-04-10T12:45:49;2.10;;;1.70;;
53287;SDS011;39172;45.550;12.072;2023-04-10T12:51:51;2.03;;;1.55;;
53287;SDS011;39172;45.550;12.072;2023-04-10T12:57:52;1.98;;;1.65;;
53287;SDS011;39172;45.550;12.072;2023-04-10T13:03:54;1.73;;;1.42;;
53287;SDS011;39172;45.550;12.072;2023-04-10T13:09:55;1.85;;;1.35;;
53287;SDS011;39172;45.550;12.072;2023-04-10T13:15:56;2.13;;;1.77;;
53287;SDS011;39172;45.550;12.072;2023-04-10T13:21:57;2.70;;;2.20;;
53287;SDS011;39172;45.550;12.072;2023-04-10T13:28:00;2.60;;;2.00;;
53287;SDS011;39172;45.550;12.072;2023-04-10T13:34:01;2.13;;;1.73;;
53287;SDS011;39172;45.550;12.072;2023-04-10T13:40:02;1.92;;;1.65;;
53287;SDS011;39172;45.550;12.072;2023-04-10T13:46:04;2.13;;;1.58;;
53287;SDS011;39172;45.550;12.072;2023-04-10T13:52:05;1.77;;;1.30;;
53287;SDS011;39172;45.550;12.072;2023-04-10T13:58:06;1.50;;;1.40;;
53287;SDS011;39172;45.550;12.072;2023-04-10T14:04:07;2.30;;;1.80;;
53287;SDS011;39172;45.550;12.072;2023-04-10T14:10:08;2.35;;;1.90;;
53287;SDS011;39172;45.550;12.072;2023-04-10T14:16:09;2.78;;;1.85;;
53287;SDS011;39172;45.550;12.072;2023-04-10T14:22:11;2.15;;;1.60;;
53287;SDS011;39172;45.550;12.072;2023-04-10T14:28:12;1.88;;;1.42;;
53287;SDS011;39172;45.550;12.072;2023-04-10T14:34:17;1.88;;;1.50;;
53287;SDS011;39172;45.550;12.072;2023-04-10T14:40:18;3.80;;;1.70;;
53287;SDS011;39172;45.550;12.072;2023-04-10T14:46:19;2.08;;;1.70;;
53287;SDS011;39172;45.550;12.072;2023-04-10T14:52:20;1.90;;;1.50;;
53287;SDS011;39172;45.550;12.072;2023-04-10T14:58:20;1.95;;;1.52;;
53287;SDS011;39172;45.550;12.072;2023-04-10T15:04:21;1.77;;;1.48;;
53287;SDS011;39172;45.550;12.072;2023-04-10T15:10:22;2.05;;;1.48;;
53287;SDS011;39172;45.550;12.072;2023-04-10T15:16:23;1.95;;;1.67;;
53287;SDS011;39172;45.550;12.072;2023-04-10T15:22:24;2.08;;;1.50;;
53287;SDS011;39172;45.550;12.072;2023-04-10T15:28:25;2.58;;;2.10;;
53287;SDS011;39172;45.550;12.072;2023-04-10T15:34:27;2.20;;;1.67;;
53287;SDS011;39172;45.550;12.072;2023-04-10T15:40:28;1.92;;;1.50;;
53287;SDS011;39172;45.550;12.072;2023-04-10T15:46:29;1.85;;;1.40;;
53287;SDS011;39172;45.550;12.072;2023-04-10T15:52:32;2.03;;;1.55;;
53287;SDS011;39172;45.550;12.072;2023-04-10T15:58:33;1.90;;;1.50;;
53287;SDS011;39172;45.550;12.072;2023-04-10T16:04:34;2.10;;;1.70;;
53287;SDS011;39172;45.550;12.072;2023-04-10T16:10:35;1.80;;;1.50;;
53287;SDS011;39172;45.550;12.072;2023-04-10T16:16:35;1.50;;;1.27;;
53287;SDS011;39172;45.550;12.072;2023-04-10T16:22:36;1.50;;;1.30;;
53287;SDS011;39172;45.550;12.072;2023-04-10T16:28:37;1.63;;;1.30;;
53287;SDS011;39172;45.550;12.072;2023-04-10T16:34:38;1.50;;;1.23;;
53287;SDS011;39172;45.550;12.072;2023-04-10T16:40:39;1.50;;;1.30;;
53287;SDS011;39172;45.550;12.072;2023-04-10T16:46:40;3.13;;;1.83;;
53287;SDS011;39172;45.550;12.072;2023-04-10T16:52:41;4.05;;;2.90;;
53287;SDS011;39172;45.550;12.072;2023-04-10T16:58:41;8.00;;;4.95;;
53287;SDS011;39172;45.550;12.072;2023-04-10T17:04:42;5.90;;;3.70;;
53287;SDS011;39172;45.550;12.072;2023-04-10T17:10:43;3.85;;;2.88;;
53287;SDS011;39172;45.550;12.072;2023-04-10T17:16:44;3.88;;;2.58;;
53287;SDS011;39172;45.550;12.072;2023-04-10T17:22:48;4.78;;;2.78;;
53287;SDS011;39172;45.550;12.072;2023-04-10T17:28:49;3.60;;;2.75;;
53287;SDS011;39172;45.550;12.072;2023-04-10T17:34:50;4.30;;;3.08;;
53287;SDS011;39172;45.550;12.072;2023-04-10T17:40:51;3.72;;;2.63;;
53287;SDS011;39172;45.550;12.072;2023-04-10T17:46:52;3.70;;;2.83;;
53287;SDS011;39172;45.550;12.072;2023-04-10T17:52:53;4.95;;;2.80;;
53287;SDS011;39172;45.550;12.072;2023-04-10T17:58:54;3.78;;;3.00;;
53287;SDS011;39172;45.550;12.072;2023-04-10T18:04:55;4.30;;;3.10;;
53287;SDS011;39172;45.550;12.072;2023-04-10T18:10:56;3.05;;;2.55;;
53287;SDS011;39172;45.550;12.072;2023-04-10T18:17:00;3.80;;;2.70;;
53287;SDS011;39172;45.550;12.072;2023-04-10T18:23:01;3.80;;;2.92;;
53287;SDS011;39172;45.550;12.072;2023-04-10T18:29:02;5.60;;;3.80;;
53287;SDS011;39172;45.550;12.072;2023-04-10T18:35:03;5.40;;;4.10;;
53287;SDS011;39172;45.550;12.072;2023-04-10T18:41:04;5.63;;;3.90;;
53287;SDS011;39172;45.550;12.072;2023-04-10T18:47:05;5.68;;;4.10;;
53287;SDS011;39172;45.550;12.072;2023-04-10T18:53:06;5.60;;;3.90;;
53287;SDS011;39172;45.550;12.072;2023-04-10T18:59:07;4.80;;;3.60;;
53287;SDS011;39172;45.550;12.072;2023-04-10T19:05:08;5.88;;;3.80;;
53287;SDS011;39172;45.550;12.072;2023-04-10T19:11:13;5.38;;;3.60;;
53287;SDS011;39172;45.550;12.072;2023-04-10T19:17:14;5.10;;;3.85;;
53287;SDS011;39172;45.550;12.072;2023-04-10T19:23:15;4.63;;;3.58;;
53287;SDS011;39172;45.550;12.072;2023-04-10T19:29:16;5.10;;;3.80;;
53287;SDS011;39172;45.550;12.072;2023-04-10T19:35:17;4.40;;;3.38;;
53287;SDS011;39172;45.550;12.072;2023-04-10T19:41:18;4.57;;;3.47;;
53287;SDS011;39172;45.550;12.072;2023-04-10T19:47:19;3.97;;;3.20;;
53287;SDS011;39172;45.550;12.072;2023-04-10T19:53:20;4.55;;;3.40;;
53287;SDS011;39172;45.550;12.072;2023-04-10T19:59:21;5.28;;;3.25;;
53287;SDS011;39172;45.550;12.072;2023-04-10T20:05:22;4.97;;;3.42;;
53287;SDS011;39172;45.550;12.072;2023-04-10T20:11:23;3.90;;;3.38;;
53287;SDS011;39172;45.550;12.072;2023-04-10T20:17:30;4.68;;;3.45;;
53287;SDS011;39172;45.550;12.072;2023-04-10T20:23:30;3.55;;;3.00;;
53287;SDS011;39172;45.550;12.072;2023-04-10T20:29:31;4.35;;;3.10;;
53287;SDS011;39172;45.550;12.072;2023-04-10T20:35:32;3.97;;;3.20;;
53287;SDS011;39172;45.550;12.072;2023-04-10T20:41:33;4.28;;;3.30;;
53287;SDS011;39172;45.550;12.072;2023-04-10T20:47:34;5.30;;;3.67;;
53287;SDS011;39172;45.550;12.072;2023-04-10T20:53:35;5.35;;;3.75;;
53287;SDS011;39172;45.550;12.072;2023-04-10T20:59:36;4.50;;;3.30;;
53287;SDS011;39172;45.550;12.072;2023-04-10T21:05:42;3.72;;;3.30;;
53287;SDS011;39172;45.550;12.072;2023-04-10T21:11:43;3.70;;;2.95;;
53287;SDS011;39172;45.550;12.072;2023-04-10T21:17:44;4.38;;;3.40;;
53287;SDS011;39172;45.550;12.072;2023-04-10T21:23:45;3.92;;;3.10;;
53287;SDS011;39172;45.550;12.072;2023-04-10T21:29:46;3.53;;;3.00;;
53287;SDS011;39172;45.550;12.072;2023-04-10T21:35:47;4.05;;;2.75;;
53287;SDS011;39172;45.550;12.072;2023-04-10T21:41:47;2.95;;;2.65;;
53287;SDS011;39172;45.550;12.072;2023-04-10T21:47:48;3.45;;;2.50;;
53287;SDS011;39172;45.550;12.072;2023-04-10T21:53:49;3.75;;;2.30;;
53287;SDS011;39172;45.550;12.072;2023-04-10T21:59:50;3.10;;;2.50;;
53287;SDS011;39172;45.550;12.072;2023-04-10T22:05:51;3.38;;;2.35;;
53287;SDS011;39172;45.550;12.072;2023-04-10T22:11:52;2.65;;;2.25;;
53287;SDS011;39172;45.550;12.072;2023-04-10T22:17:53;4.00;;;2.78;;
53287;SDS011;39172;45.550;12.072;2023-04-10T22:23:54;3.47;;;2.88;;
53287;SDS011;39172;45.550;12.072;2023-04-10T22:29:54;3.25;;;2.70;;
53287;SDS011;39172;45.550;12.072;2023-04-10T22:35:55;4.15;;;2.53;;
53287;SDS011;39172;45.550;12.072;2023-04-10T22:41:56;3.28;;;2.45;;
53287;SDS011;39172;45.550;12.072;2023-04-10T22:47:57;2.90;;;2.10;;
53287;SDS011;39172;45.550;12.072;2023-04-10T22:53:58;2.50;;;2.03;;
53287;SDS011;39172;45.550;12.072;2023-04-10T22:59:59;2.30;;;1.90;;
53287;SDS011;39172;45.550;12.072;2023-04-10T23:06:00;2.35;;;1.95;;
53287;SDS011;39172;45.550;12.072;2023-04-10T23:12:01;2.70;;;2.17;;
53287;SDS011;39172;45.550;12.072;2023-04-10T23:18:02;1.92;;;1.73;;
53287;SDS011;39172;45.550;12.072;2023-04-10T23:24:03;2.60;;;2.10;;
53287;SDS011;39172;45.550;12.072;2023-04-10T23:30:04;2.20;;;1.80;;
53287;SDS011;39172;45.550;12.072;2023-04-10T23:36:05;2.70;;;1.90;;
53287;SDS011;39172;45.550;12.072;2023-04-10T23:42:06;2.55;;;1.80;;
53287;SDS011;39172;45.550;12.072;2023-04-10T23:48:08;2.03;;;1.70;;
53287;SDS011;39172;45.550;12.072;2023-04-10T23:54:10;2.13;;;1.63;;
